Time;durP1;ratioP1;P1;durP2;ratioP2;P2;SDS_P1;SDS_P2;PMS_P1;PMS_P2;Temp;Humidity;BMP_temperature;BMP_pressure;BME280_temperature;BME280_humidity;BME280_pressure;Samples;Min_cycle;Max_cycle;Signal;HPM_P1;HPM_P2
2022/04/13 00:00:32;;;;;;;12.17;6.13;;;11.40;59.80;;;;;;5002194;28;20882;-77
2022/04/13 00:03:01;;;;;;;10.70;5.57;;;11.40;59.70;;;;;;5005475;28;20229;-77
2022/04/13 00:05:32;;;;;;;13.17;5.63;;;11.40;59.70;;;;;;5001986;28;20214;-77
2022/04/13 00:08:05;;;;;;;8.93;5.03;;;11.40;59.70;;;;;;5001189;28;20203;-77
2022/04/13 00:10:37;;;;;;;13.03;5.53;;;11.40;59.50;;;;;;5004320;28;20197;-77
2022/04/13 00:13:05;;;;;;;9.33;5.03;;;11.40;59.50;;;;;;5002890;28;20299;-78
2022/04/13 00:15:34;;;;;;;12.07;5.37;;;11.40;59.40;;;;;;5002027;28;20729;-78
2022/04/13 00:18:06;;;;;;;11.40;5.70;;;11.50;59.40;;;;;;5002111;28;20204;-78
2022/04/13 00:20:35;;;;;;;11.77;5.63;;;11.50;59.40;;;;;;5001598;28;20196;-77
2022/04/13 00:23:04;;;;;;;8.93;5.60;;;11.50;59.40;;;;;;5002808;28;20199;-78
2022/04/13 00:25:33;;;;;;;11.47;5.30;;;11.50;59.70;;;;;;5002158;28;20192;-77
2022/04/13 00:28:03;;;;;;;9.43;5.60;;;11.50;60.00;;;;;;5001805;28;20209;-78
2022/04/13 00:30:31;;;;;;;9.43;5.87;;;11.50;60.00;;;;;;4999758;28;20216;-78
2022/04/13 00:33:00;;;;;;;10.17;5.20;;;11.50;59.90;;;;;;5001506;28;20573;-77
2022/04/13 00:35:29;;;;;;;9.77;6.10;;;11.40;60.50;;;;;;5002946;28;20196;-77
2022/04/13 00:37:58;;;;;;;10.90;6.30;;;11.40;60.90;;;;;;5002067;28;20204;-77
2022/04/13 00:40:27;;;;;;;9.47;6.00;;;11.40;61.30;;;;;;5002401;28;20206;-78
2022/04/13 00:42:55;;;;;;;9.90;5.57;;;11.40;61.70;;;;;;5001591;28;20675;-77
2022/04/13 00:45:25;;;;;;;9.23;5.53;;;11.30;61.60;;;;;;5001953;28;20198;-78
2022/04/13 00:47:54;;;;;;;9.63;5.50;;;11.40;61.40;;;;;;5005799;28;20760;-77
2022/04/13 00:50:23;;;;;;;10.37;5.47;;;11.30;61.60;;;;;;5006342;28;20204;-77
2022/04/13 00:52:53;;;;;;;9.57;5.17;;;11.30;61.60;;;;;;5004980;28;20200;-77
2022/04/13 00:55:25;;;;;;;10.52;5.55;;;11.30;62.50;;;;;;5005499;28;20561;-77
2022/04/13 00:57:55;;;;;;;11.80;5.53;;;11.30;61.50;;;;;;5006085;28;20200;-76
2022/04/13 01:00:23;;;;;;;7.77;4.60;;;11.30;61.50;;;;;;5004782;28;20207;-77
2022/04/13 01:02:54;;;;;;;8.20;5.00;;;11.30;61.50;;;;;;5004285;28;20197;-76
2022/04/13 01:05:24;;;;;;;9.53;5.00;;;11.30;61.60;;;;;;5005416;28;20195;-77
2022/04/13 01:07:53;;;;;;;9.23;5.17;;;11.30;61.50;;;;;;5005845;28;20227;-77
2022/04/13 01:10:22;;;;;;;9.43;4.93;;;11.30;61.30;;;;;;5007065;28;20207;-76
2022/04/13 01:12:50;;;;;;;8.83;5.20;;;11.30;61.20;;;;;;5008653;28;21073;-77
2022/04/13 01:15:19;;;;;;;10.87;5.00;;;11.30;61.20;;;;;;5008790;28;20787;-77
2022/04/13 01:17:48;;;;;;;9.00;4.50;;;11.30;61.30;;;;;;5006853;28;20217;-77
2022/04/13 01:20:22;;;;;;;8.33;4.80;;;11.30;61.30;;;;;;5007019;28;20206;-77
2022/04/13 01:22:51;;;;;;;8.80;4.70;;;11.30;61.10;;;;;;5006198;28;20207;-76
2022/04/13 01:25:20;;;;;;;8.20;4.90;;;11.30;61.10;;;;;;5006586;28;20704;-76
2022/04/13 01:27:48;;;;;;;11.30;4.70;;;11.30;61.20;;;;;;5006383;28;20210;-78
2022/04/13 01:30:16;;;;;;;8.47;4.37;;;11.40;61.10;;;;;;5007841;28;20774;-76
2022/04/13 01:32:45;;;;;;;9.13;4.60;;;11.40;60.80;;;;;;5006484;28;20196;-78
2022/04/13 01:35:13;;;;;;;8.53;4.47;;;11.40;60.80;;;;;;5008579;28;20203;-79
2022/04/13 01:37:41;;;;;;;11.30;5.07;;;11.40;60.60;;;;;;5007867;28;20853;-78
2022/04/13 01:40:12;;;;;;;7.37;4.13;;;11.40;60.40;;;;;;5004027;28;20201;-78
2022/04/13 01:42:40;;;;;;;7.57;3.83;;;11.40;60.20;;;;;;5008479;28;20326;-78
2022/04/13 01:45:10;;;;;;;6.70;3.73;;;11.40;59.90;;;;;;5006024;28;20197;-78
2022/04/13 01:47:38;;;;;;;6.40;3.70;;;11.40;59.90;;;;;;5005548;28;20200;-79
2022/04/13 01:50:09;;;;;;;8.07;4.30;;;11.40;59.70;;;;;;5004888;28;20199;-78
2022/04/13 01:52:38;;;;;;;9.07;4.20;;;11.40;59.60;;;;;;5003416;28;20313;-77
2022/04/13 01:55:07;;;;;;;8.00;3.90;;;11.50;59.40;;;;;;5005442;28;20199;-78
2022/04/13 01:57:37;;;;;;;7.30;4.07;;;11.50;59.30;;;;;;5004853;28;20749;-78
2022/04/13 02:00:07;;;;;;;6.37;3.93;;;11.50;59.10;;;;;;5005863;28;20806;-78
2022/04/13 02:02:35;;;;;;;6.33;3.63;;;11.50;59.00;;;;;;5006886;28;20215;-78
2022/04/13 02:05:05;;;;;;;6.83;3.70;;;11.60;58.80;;;;;;5006669;28;20203;-78
2022/04/13 02:07:34;;;;;;;5.87;3.10;;;11.50;58.60;;;;;;5006738;28;20941;-78
2022/04/13 02:10:03;;;;;;;6.53;3.23;;;11.60;58.50;;;;;;5003553;28;20201;-78
2022/04/13 02:12:32;;;;;;;6.50;3.90;;;11.60;58.20;;;;;;5007072;28;20207;-79
2022/04/13 02:15:01;;;;;;;5.53;3.37;;;11.60;58.10;;;;;;5005436;28;20204;-78
2022/04/13 02:17:30;;;;;;;7.40;3.77;;;11.60;57.80;;;;;;5006815;28;20238;-78
2022/04/13 02:19:58;;;;;;;7.60;3.80;;;11.60;57.40;;;;;;5001028;28;20780;-79
2022/04/13 02:22:27;;;;;;;7.00;3.20;;;11.60;57.40;;;;;;5004857;28;20823;-79
2022/04/13 02:25:14;;;;;;;9.70;3.93;;;11.60;57.20;;;;;;5005121;28;20322;-77
2022/04/13 02:27:43;;;;;;;9.83;3.80;;;11.60;57.00;;;;;;5007205;28;20199;-78
2022/04/13 02:30:16;;;;;;;7.97;3.40;;;11.60;56.90;;;;;;5004378;28;20227;-78
2022/04/13 02:32:44;;;;;;;9.87;3.63;;;11.60;57.00;;;;;;5008571;28;20816;-79
2022/04/13 02:35:14;;;;;;;9.43;4.23;;;11.60;56.90;;;;;;5006368;28;20208;-78
2022/04/13 02:37:43;;;;;;;5.63;3.43;;;11.60;56.80;;;;;;5006261;28;20605;-78
2022/04/13 02:40:13;;;;;;;8.63;3.77;;;11.60;56.80;;;;;;5007068;28;20200;-78
2022/04/13 02:42:42;;;;;;;9.47;3.10;;;11.60;56.90;;;;;;5008289;28;20235;-78
2022/04/13 02:45:12;;;;;;;6.83;3.70;;;11.60;56.60;;;;;;5007510;28;20208;-78
2022/04/13 02:47:40;;;;;;;6.73;3.70;;;11.60;56.70;;;;;;5006501;28;20211;-78
2022/04/13 02:50:10;;;;;;;6.67;3.80;;;11.60;56.60;;;;;;5006504;28;21017;-79
2022/04/13 02:52:38;;;;;;;9.20;4.30;;;11.70;56.80;;;;;;5000699;28;20204;-79
2022/04/13 02:55:10;;;;;;;9.23;4.83;;;11.70;56.80;;;;;;5007106;28;20714;-78
2022/04/13 02:57:40;;;;;;;9.47;4.30;;;11.60;56.60;;;;;;5004977;28;20297;-79
2022/04/13 03:00:09;;;;;;;10.07;4.20;;;11.60;56.60;;;;;;5005856;28;20934;-79
2022/04/13 03:02:39;;;;;;;8.20;4.17;;;11.60;56.70;;;;;;5005307;28;20843;-78
2022/04/13 03:05:10;;;;;;;7.17;3.93;;;11.60;56.80;;;;;;5004678;28;20754;-79
2022/04/13 03:07:38;;;;;;;10.67;4.33;;;11.60;56.70;;;;;;5004033;28;20185;-78
2022/04/13 03:10:08;;;;;;;7.67;4.00;;;11.60;56.70;;;;;;5002950;28;20219;-78
2022/04/13 03:12:37;;;;;;;6.17;3.90;;;11.60;56.80;;;;;;5002376;28;20193;-78
2022/04/13 03:15:11;;;;;;;6.47;3.60;;;11.60;56.70;;;;;;5004202;28;20291;-79
2022/04/13 03:17:41;;;;;;;8.57;4.27;;;11.60;56.60;;;;;;5003469;28;20263;-78
2022/04/13 03:20:11;;;;;;;9.60;3.90;;;11.50;56.60;;;;;;5001943;28;20678;-79
2022/04/13 03:22:40;;;;;;;6.70;3.70;;;11.60;56.60;;;;;;5002307;28;20227;-78
2022/04/13 03:25:09;;;;;;;6.67;3.50;;;11.50;56.60;;;;;;5003205;28;20200;-79
2022/04/13 03:27:38;;;;;;;9.07;3.87;;;11.50;56.70;;;;;;5001169;28;20199;-78
2022/04/13 03:30:08;;;;;;;9.47;4.10;;;11.50;56.70;;;;;;5001520;28;20199;-78
2022/04/13 03:32:37;;;;;;;9.77;4.30;;;11.50;57.00;;;;;;5002220;28;20883;-79
2022/04/13 03:35:09;;;;;;;6.33;3.73;;;11.50;57.20;;;;;;5000518;28;20200;-79
2022/04/13 03:37:38;;;;;;;7.10;3.67;;;11.40;57.00;;;;;;5002419;28;20207;-78
2022/04/13 03:40:08;;;;;;;8.30;4.53;;;11.50;57.00;;;;;;5002316;28;20685;-78
2022/04/13 03:42:37;;;;;;;9.70;4.30;;;11.40;57.00;;;;;;5002767;28;20206;-78
2022/04/13 03:45:06;;;;;;;8.37;3.60;;;11.40;56.90;;;;;;5002598;28;20208;-78
2022/04/13 03:47:35;;;;;;;9.57;4.37;;;11.40;56.90;;;;;;5002352;28;20211;-79
2022/04/13 03:50:03;;;;;;;6.27;3.63;;;11.40;56.80;;;;;;5001805;28;20215;-80
2022/04/13 03:52:34;;;;;;;9.67;4.43;;;11.40;56.90;;;;;;5002512;28;20693;-78
2022/04/13 03:55:04;;;;;;;7.20;4.47;;;11.40;57.10;;;;;;5001680;28;20706;-80
2022/04/13 03:57:32;;;;;;;11.50;4.87;;;11.30;57.80;;;;;;5002971;28;20224;-78
2022/04/13 04:00:01;;;;;;;10.93;4.37;;;11.30;57.10;;;;;;5002667;28;20212;-78
2022/04/13 04:02:29;;;;;;;9.90;4.90;;;11.30;57.30;;;;;;5003558;28;20957;-79
2022/04/13 04:04:58;;;;;;;9.67;4.60;;;11.30;57.60;;;;;;5002990;28;20760;-79
2022/04/13 04:07:33;;;;;;;10.37;6.17;;;11.30;57.60;;;;;;5001392;28;20619;-78
2022/04/13 04:10:02;;;;;;;15.13;5.73;;;11.20;57.90;;;;;;5001377;28;20204;-78
2022/04/13 04:12:30;;;;;;;13.37;5.53;;;11.10;58.30;;;;;;5003855;28;20204;-78
2022/04/13 04:15:02;;;;;;;10.67;5.17;;;11.10;58.20;;;;;;5004139;28;20200;-78
2022/04/13 04:17:30;;;;;;;10.40;5.53;;;11.10;58.20;;;;;;5003213;28;20227;-79
2022/04/13 04:19:58;;;;;;;15.77;5.70;;;11.10;58.30;;;;;;5004859;28;20203;-79
2022/04/13 04:22:28;;;;;;;10.57;6.17;;;11.00;58.60;;;;;;5007097;28;20231;-78
2022/04/13 04:25:01;;;;;;;20.80;7.30;;;11.00;58.60;;;;;;5006598;28;20199;-78
2022/04/13 04:27:30;;;;;;;14.47;6.47;;;11.00;58.60;;;;;;5007356;28;20215;-78
2022/04/13 04:29:58;;;;;;;14.50;6.80;;;11.00;58.70;;;;;;5006445;28;20200;-78
2022/04/13 04:32:27;;;;;;;14.10;6.73;;;11.00;58.70;;;;;;5005435;28;20197;-78
2022/04/13 04:34:55;;;;;;;10.17;6.17;;;11.10;58.90;;;;;;5005626;28;20666;-78
2022/04/13 04:37:24;;;;;;;16.80;6.63;;;11.10;58.90;;;;;;5005719;28;20215;-77
2022/04/13 04:39:52;;;;;;;12.07;6.97;;;11.00;58.80;;;;;;5004221;28;20203;-77
2022/04/13 04:42:22;;;;;;;17.40;6.30;;;11.10;59.00;;;;;;5007920;28;20199;-78
2022/04/13 04:44:55;;;;;;;10.93;6.27;;;11.10;59.00;;;;;;5007718;28;20204;-78
2022/04/13 04:47:24;;;;;;;16.97;6.97;;;11.10;59.20;;;;;;5004168;28;20207;-77
2022/04/13 04:49:53;;;;;;;12.30;6.13;;;11.10;59.10;;;;;;5006310;28;20318;-78
2022/04/13 04:52:21;;;;;;;11.83;6.30;;;11.10;59.20;;;;;;5007999;28;20567;-78
2022/04/13 04:54:49;;;;;;;12.13;6.20;;;11.10;59.20;;;;;;5006843;28;20630;-78
2022/04/13 04:57:18;;;;;;;12.33;6.23;;;11.10;59.30;;;;;;5004142;28;20557;-78
2022/04/13 04:59:47;;;;;;;12.60;5.90;;;11.10;59.30;;;;;;5004716;28;20797;-78
2022/04/13 05:02:16;;;;;;;12.23;6.30;;;11.10;59.20;;;;;;5004418;28;20200;-79
2022/04/13 05:04:44;;;;;;;11.67;6.10;;;11.10;59.20;;;;;;5007088;28;20204;-78
2022/04/13 05:07:13;;;;;;;14.27;6.80;;;11.20;59.30;;;;;;5004645;28;20200;-77
2022/04/13 05:09:41;;;;;;;13.83;7.27;;;11.20;59.60;;;;;;5005063;28;20201;-78
2022/04/13 05:12:10;;;;;;;13.33;6.43;;;11.20;60.00;;;;;;5005006;28;20200;-78
2022/04/13 05:14:38;;;;;;;11.53;6.47;;;11.20;59.90;;;;;;5006405;28;20200;-78
2022/04/13 05:17:08;;;;;;;10.13;6.30;;;11.20;59.90;;;;;;5006102;28;20201;-77
2022/04/13 05:19:37;;;;;;;14.03;7.27;;;11.30;59.90;;;;;;5005809;28;20879;-77
2022/04/13 05:22:05;;;;;;;14.00;8.00;;;11.30;59.90;;;;;;4989098;28;20224;-78
2022/04/13 05:24:34;;;;;;;18.27;7.33;;;11.30;60.30;;;;;;4985690;28;20738;-77
2022/04/13 05:27:02;;;;;;;19.07;9.07;;;11.30;60.20;;;;;;4986704;28;20196;-77
2022/04/13 05:29:30;;;;;;;20.23;10.33;;;11.40;60.30;;;;;;4984436;28;20191;-77
2022/04/13 05:31:58;;;;;;;18.20;9.93;;;11.40;60.60;;;;;;4985332;28;20211;-77
2022/04/13 05:34:33;;;;;;;21.33;9.33;;;11.40;61.30;;;;;;4985732;28;20624;-77
2022/04/13 05:37:02;;;;;;;16.83;9.47;;;11.50;60.40;;;;;;4985857;28;20677;-76
2022/04/13 05:39:30;;;;;;;27.40;9.67;;;11.50;60.20;;;;;;4986053;28;20217;-77
2022/04/13 05:41:59;;;;;;;16.63;7.50;;;11.60;60.20;;;;;;4985372;28;20220;-78
2022/04/13 05:44:27;;;;;;;14.70;7.90;;;11.70;60.40;;;;;;4984892;28;20196;-78
2022/04/13 05:46:55;;;;;;;13.10;6.90;;;11.70;60.10;;;;;;4987188;28;20197;-78
2022/04/13 05:49:24;;;;;;;14.27;7.20;;;11.70;60.00;;;;;;4985315;28;20284;-77
2022/04/13 05:51:53;;;;;;;10.50;7.13;;;11.80;59.90;;;;;;4985755;28;20828;-77
2022/04/13 05:54:22;;;;;;;12.63;6.30;;;11.80;59.60;;;;;;4986558;28;20201;-78
2022/04/13 05:56:50;;;;;;;10.57;6.70;;;11.90;59.50;;;;;;4984606;28;20197;-78
2022/04/13 05:59:19;;;;;;;14.57;6.10;;;11.90;59.60;;;;;;4985386;28;20876;-77
2022/04/13 06:01:47;;;;;;;16.53;6.87;;;12.00;59.60;;;;;;4986785;28;20197;-78
2022/04/13 06:04:16;;;;;;;9.77;6.07;;;12.00;59.40;;;;;;4985666;28;20301;-78
2022/04/13 06:06:45;;;;;;;10.43;6.03;;;12.20;59.20;;;;;;4984305;28;20205;-78
2022/04/13 06:09:15;;;;;;;9.90;5.73;;;12.20;59.00;;;;;;4986402;28;20200;-78
2022/04/13 06:11:43;;;;;;;10.40;5.67;;;12.30;58.40;;;;;;4985312;28;20209;-78
2022/04/13 06:14:11;;;;;;;10.57;5.47;;;12.30;58.00;;;;;;4987117;28;20205;-78
2022/04/13 06:16:40;;;;;;;12.33;6.30;;;12.40;58.00;;;;;;4985120;28;20240;-77
2022/04/13 06:19:08;;;;;;;9.30;5.73;;;12.50;58.00;;;;;;4984996;28;20221;-79
2022/04/13 06:21:37;;;;;;;8.57;4.90;;;12.60;58.00;;;;;;4985914;28;20225;-77
2022/04/13 06:24:06;;;;;;;9.43;5.00;;;12.60;57.00;;;;;;4986055;28;20204;-78
2022/04/13 06:26:37;;;;;;;8.63;5.00;;;12.70;56.80;;;;;;4986200;28;20203;-77
2022/04/13 06:29:06;;;;;;;8.67;4.27;;;12.80;56.90;;;;;;4984689;28;20197;-78
2022/04/13 06:31:34;;;;;;;8.93;5.03;;;12.80;56.80;;;;;;4987334;28;20457;-78
2022/04/13 06:34:03;;;;;;;6.27;4.47;;;12.90;56.50;;;;;;4985908;28;20730;-79
2022/04/13 06:36:32;;;;;;;8.17;4.37;;;13.00;56.20;;;;;;4985664;28;20200;-78
2022/04/13 06:39:00;;;;;;;11.70;4.43;;;13.00;55.30;;;;;;4985926;28;20714;-77
2022/04/13 06:41:29;;;;;;;6.37;4.00;;;13.10;55.30;;;;;;4984869;28;20706;-77
2022/04/13 06:43:59;;;;;;;10.13;4.10;;;13.20;55.10;;;;;;4984533;28;20211;-77
2022/04/13 06:46:28;;;;;;;6.93;3.87;;;13.20;55.10;;;;;;4986203;28;20278;-78
2022/04/13 06:48:56;;;;;;;8.00;4.63;;;13.30;54.40;;;;;;4985756;28;20231;-78
2022/04/13 06:51:25;;;;;;;9.13;4.17;;;13.30;54.50;;;;;;4985629;28;20197;-77
2022/04/13 06:53:53;;;;;;;9.80;4.23;;;13.40;54.00;;;;;;4984825;28;20902;-78
2022/04/13 06:56:21;;;;;;;8.97;4.10;;;13.50;54.10;;;;;;4984938;28;20212;-77
2022/04/13 06:58:53;;;;;;;10.00;4.37;;;13.50;53.20;;;;;;4984600;28;20205;-77
2022/04/13 07:01:22;;;;;;;6.23;3.60;;;13.60;53.30;;;;;;4985379;28;20197;-77
2022/04/13 07:03:51;;;;;;;7.07;3.90;;;13.70;53.50;;;;;;4985146;28;20292;-79
2022/04/13 07:06:19;;;;;;;5.47;3.17;;;13.70;53.50;;;;;;4985876;28;20718;-79
2022/04/13 07:09:08;;;;;;;7.90;3.77;;;13.80;52.70;;;;;;4985500;28;20200;-80
2022/04/13 07:11:37;;;;;;;6.33;3.40;;;13.90;52.20;;;;;;4983961;28;20223;-77
2022/04/13 07:14:06;;;;;;;6.60;3.63;;;13.90;52.00;;;;;;4983405;28;20292;-78
2022/04/13 07:16:37;;;;;;;5.90;3.43;;;14.00;52.00;;;;;;4985013;28;20236;-78
2022/04/13 07:19:06;;;;;;;9.83;4.47;;;14.00;51.90;;;;;;4983233;28;20193;-80
2022/04/13 07:21:35;;;;;;;6.27;3.47;;;14.10;51.80;;;;;;4983696;28;20739;-79
2022/04/13 07:24:24;;;;;;;5.43;2.93;;;14.20;51.30;;;;;;4985045;28;20236;-80
2022/04/13 07:26:53;;;;;;;8.33;3.47;;;14.20;50.50;;;;;;4984140;28;20263;-79
2022/04/13 07:29:22;;;;;;;8.90;3.90;;;14.20;50.00;;;;;;4985049;28;20200;-78
2022/04/13 07:31:52;;;;;;;6.77;3.27;;;14.30;50.10;;;;;;4985201;28;20912;-77
2022/04/13 07:34:20;;;;;;;6.83;3.97;;;14.40;50.00;;;;;;4984673;28;20197;-79
2022/04/13 07:36:49;;;;;;;8.10;3.53;;;14.40;49.80;;;;;;4982787;28;21271;-80
2022/04/13 07:39:17;;;;;;;9.27;3.30;;;14.50;49.70;;;;;;4982065;28;20232;-80
2022/04/13 07:41:46;;;;;;;4.43;3.10;;;14.60;49.70;;;;;;4982576;28;20208;-79
2022/04/13 07:44:14;;;;;;;5.67;3.20;;;14.60;49.20;;;;;;4982153;28;20204;-79
2022/04/13 07:46:42;;;;;;;7.90;3.30;;;14.70;49.30;;;;;;4982151;28;20204;-79
2022/04/13 07:49:14;;;;;;;5.40;2.80;;;14.80;49.10;;;;;;4982170;28;20205;-78
2022/04/13 07:51:43;;;;;;;4.47;2.63;;;14.80;48.70;;;;;;4982367;28;20431;-78
2022/04/13 07:54:11;;;;;;;6.60;2.80;;;14.90;48.70;;;;;;4981930;28;20202;-78
2022/04/13 07:56:59;;;;;;;4.67;2.93;;;14.90;48.20;;;;;;4981597;28;20215;-79
2022/04/13 07:59:29;;;;;;;4.47;2.90;;;15.00;48.10;;;;;;4982837;28;20200;-78
2022/04/13 08:01:57;;;;;;;5.50;2.87;;;15.00;48.10;;;;;;4981150;28;20651;-77
2022/04/13 08:04:27;;;;;;;4.90;2.63;;;15.00;47.60;;;;;;4981774;28;20220;-78
2022/04/13 08:06:55;;;;;;;5.03;2.80;;;15.00;47.00;;;;;;4981835;28;20914;-77
2022/04/13 08:09:24;;;;;;;5.60;3.10;;;15.10;47.30;;;;;;4982054;28;20246;-77
2022/04/13 08:11:53;;;;;;;4.07;2.40;;;15.10;47.60;;;;;;4981999;28;20197;-77
2022/04/13 08:14:22;;;;;;;7.67;2.37;;;15.10;47.80;;;;;;4981873;28;20219;-78
2022/04/13 08:16:51;;;;;;;4.40;1.93;;;15.20;48.00;;;;;;4984866;28;20212;-79
2022/04/13 08:19:19;;;;;;;3.63;1.67;;;15.20;46.70;;;;;;4982165;28;20332;-77
2022/04/13 08:25:43;;;;;;;2.87;1.97;;;15.40;45.50;;;;;;4981508;28;20733;-76
2022/04/13 08:28:12;;;;;;;2.93;1.60;;;15.40;45.50;;;;;;4983460;28;20201;-78
2022/04/13 08:30:40;;;;;;;3.03;1.93;;;15.50;45.90;;;;;;4981671;28;20199;-77
2022/04/13 08:33:12;;;;;;;7.30;2.23;;;15.60;45.90;;;;;;4981427;28;20196;-77
2022/04/13 08:35:41;;;;;;;5.23;2.07;;;15.60;45.60;;;;;;4981287;28;20200;-77
2022/04/13 08:38:10;;;;;;;5.40;1.97;;;15.70;45.60;;;;;;4982613;28;20651;-77
2022/04/13 08:40:45;;;;;;;4.57;2.00;;;15.80;45.20;;;;;;4983738;28;20221;-77
2022/04/13 08:43:19;;;;;;;3.63;2.03;;;15.80;45.90;;;;;;4983157;28;20185;-77
2022/04/13 08:45:55;;;;;;;4.27;2.27;;;15.90;45.50;;;;;;4980638;28;20193;-76
2022/04/13 08:48:26;;;;;;;5.13;2.20;;;16.00;44.70;;;;;;4980936;28;20278;-77
2022/04/13 08:50:59;;;;;;;3.40;2.10;;;16.00;44.90;;;;;;4981928;28;20208;-79
2022/04/13 08:53:30;;;;;;;4.33;2.00;;;16.10;45.40;;;;;;4980658;28;20591;-77
2022/04/13 08:56:01;;;;;;;4.90;1.80;;;16.10;44.30;;;;;;4984006;28;20197;-77
2022/04/13 08:59:02;;;;;;;3.73;1.70;;;16.20;44.40;;;;;;4981790;28;20220;-76
2022/04/13 09:01:37;;;;;;;4.43;2.30;;;16.20;44.10;;;;;;4982261;28;20202;-78
2022/04/13 09:04:10;;;;;;;4.90;2.10;;;16.20;44.10;;;;;;4981229;28;20196;-78
2022/04/13 09:06:41;;;;;;;5.27;2.30;;;16.30;44.50;;;;;;4981543;28;20246;-78
2022/04/13 09:09:15;;;;;;;5.30;2.30;;;16.30;44.00;;;;;;4986281;28;20214;-77
2022/04/13 09:11:47;;;;;;;4.63;2.30;;;16.40;44.10;;;;;;4985869;28;20279;-76
2022/04/13 09:14:18;;;;;;;4.10;2.17;;;16.40;44.40;;;;;;4984135;28;20216;-78
2022/04/13 09:16:46;;;;;;;5.03;1.80;;;16.40;43.70;;;;;;4986267;28;20208;-76
2022/04/13 09:19:17;;;;;;;3.83;2.30;;;16.50;44.10;;;;;;4985496;28;20903;-78
2022/04/13 09:21:46;;;;;;;5.77;2.30;;;16.60;43.90;;;;;;4985661;28;20244;-78
2022/04/13 09:24:15;;;;;;;5.13;2.67;;;16.60;44.10;;;;;;4985329;28;20713;-79
2022/04/13 09:26:46;;;;;;;4.07;2.30;;;16.60;44.00;;;;;;4986262;28;20212;-78
2022/04/13 09:29:15;;;;;;;4.30;1.90;;;16.70;43.90;;;;;;4983829;28;20193;-77
2022/04/13 09:31:46;;;;;;;4.57;2.63;;;16.80;43.90;;;;;;4984740;28;20227;-79
2022/04/13 09:34:14;;;;;;;6.77;2.40;;;16.80;44.10;;;;;;4985419;28;20197;-77
2022/04/13 09:36:43;;;;;;;6.87;2.57;;;16.90;44.50;;;;;;4983541;28;20216;-78
2022/04/13 09:39:12;;;;;;;12.30;2.30;;;16.90;43.10;;;;;;4984656;28;20193;-78
2022/04/13 09:41:40;;;;;;;4.33;2.23;;;16.90;43.40;;;;;;4985297;28;21539;-77
2022/04/13 09:44:18;;;;;;;6.20;2.20;;;16.90;42.90;;;;;;4984177;28;20193;-79
2022/04/13 09:46:48;;;;;;;3.77;2.03;;;17.00;42.80;;;;;;4987228;28;20197;-78
2022/04/13 09:49:18;;;;;;;4.37;2.27;;;17.10;43.10;;;;;;4985538;28;20204;-79
2022/04/13 09:51:49;;;;;;;4.90;2.37;;;17.10;42.90;;;;;;4984942;28;20201;-75
2022/04/13 09:54:25;;;;;;;5.27;2.57;;;17.20;42.90;;;;;;4985283;28;20660;-77
2022/04/13 09:56:53;;;;;;;3.43;2.20;;;17.20;43.10;;;;;;4985287;28;20201;-77
2022/04/13 09:59:32;;;;;;;6.70;2.40;;;17.30;42.70;;;;;;4985349;28;20235;-80
2022/04/13 10:02:02;;;;;;;5.47;2.23;;;17.30;42.00;;;;;;4985232;28;20212;-78
2022/04/13 10:04:32;;;;;;;6.70;2.63;;;17.30;42.40;;;;;;4985841;28;20289;-79
2022/04/13 10:07:15;;;;;;;5.33;2.77;;;17.40;42.40;;;;;;4985490;28;20584;-78
2022/04/13 10:09:44;;;;;;;4.33;2.27;;;17.50;42.80;;;;;;4988868;28;20200;-78
2022/04/13 10:12:12;;;;;;;5.07;2.57;;;17.50;42.60;;;;;;4995385;28;20192;-79
2022/04/13 10:14:41;;;;;;;5.30;2.57;;;17.60;42.60;;;;;;4988894;28;20751;-78
2022/04/13 10:17:13;;;;;;;3.50;2.47;;;17.60;42.50;;;;;;4986126;28;20568;-79
2022/04/13 10:19:41;;;;;;;5.07;2.60;;;17.50;42.00;;;;;;4984479;28;20217;-80
2022/04/13 10:22:10;;;;;;;6.03;2.63;;;17.60;41.00;;;;;;4987594;28;20965;-76
2022/04/13 10:24:40;;;;;;;4.87;2.50;;;17.60;41.70;;;;;;4985139;28;20200;-78
2022/04/13 10:27:10;;;;;;;7.30;2.57;;;17.70;42.10;;;;;;4986693;28;20208;-80
2022/04/13 10:29:41;;;;;;;4.10;2.40;;;17.70;40.90;;;;;;4983218;28;20232;-79
2022/04/13 10:32:12;;;;;;;6.63;2.80;;;17.60;39.50;;;;;;4984942;28;20288;-77
2022/04/13 10:34:43;;;;;;;6.53;2.63;;;17.70;40.50;;;;;;4985187;28;20274;-80
2022/04/13 10:37:12;;;;;;;5.33;2.73;;;17.70;40.80;;;;;;4984200;28;20197;-79
2022/04/13 10:39:42;;;;;;;4.87;2.47;;;17.80;41.00;;;;;;4984429;28;20216;-79
2022/04/13 10:42:11;;;;;;;4.53;2.63;;;17.80;41.20;;;;;;4984609;28;20212;-78
2022/04/13 10:44:43;;;;;;;4.87;2.73;;;17.90;41.40;;;;;;4984907;28;20777;-79
2022/04/13 10:47:18;;;;;;;4.80;2.40;;;18.10;41.40;;;;;;4983483;28;20198;-80
2022/04/13 10:50:00;;;;;;;3.37;2.23;;;18.10;41.20;;;;;;4983310;28;20200;-80
2022/04/13 10:52:46;;;;;;;3.97;2.53;;;18.10;41.30;;;;;;4985901;28;20276;-83
2022/04/13 10:55:23;;;;;;;6.47;2.90;;;18.20;41.20;;;;;;4985736;28;20284;-80
2022/04/13 10:57:58;;;;;;;7.27;2.73;;;18.20;40.60;;;;;;4984686;28;20288;-78
2022/04/13 11:00:45;;;;;;;4.33;2.13;;;18.20;40.50;;;;;;4983707;28;20574;-76
2022/04/13 11:03:21;;;;;;;4.10;2.10;;;18.40;40.30;;;;;;4983223;28;20208;-76
2022/04/13 11:05:50;;;;;;;4.03;2.67;;;18.40;40.30;;;;;;4983812;28;20201;-77
2022/04/13 11:08:26;;;;;;;7.53;2.83;;;18.50;39.50;;;;;;4983255;28;20232;-78
2022/04/13 11:10:55;;;;;;;4.57;2.30;;;18.50;39.40;;;;;;4983964;28;20193;-77
2022/04/13 11:13:24;;;;;;;3.70;2.23;;;18.60;39.60;;;;;;4983906;28;20205;-78
2022/04/13 11:16:13;;;;;;;3.77;2.47;;;18.70;39.60;;;;;;4982387;28;20199;-78
2022/04/13 11:18:44;;;;;;;5.60;2.63;;;18.80;39.80;;;;;;4982907;28;20213;-79
2022/04/13 11:21:12;;;;;;;7.63;2.40;;;18.90;39.60;;;;;;4982647;28;20435;-79
2022/04/13 11:23:51;;;;;;;5.40;2.57;;;19.00;38.70;;;;;;4982863;28;20193;-80
2022/04/13 11:26:27;;;;;;;3.40;2.13;;;19.10;39.00;;;;;;4984196;28;20647;-80
2022/04/13 11:29:17;;;;;;;3.40;2.23;;;19.10;38.90;;;;;;4983509;28;20452;-79
2022/04/13 11:32:09;;;;;;;5.93;2.97;;;19.10;38.40;;;;;;4982538;28;20284;-79
2022/04/13 11:34:44;;;;;;;6.10;2.53;;;18.90;38.20;;;;;;4982859;28;20201;-79
2022/04/13 11:37:14;;;;;;;6.97;2.77;;;18.80;38.80;;;;;;4982769;28;20207;-78
2022/04/13 11:39:51;;;;;;;4.63;2.50;;;18.90;38.90;;;;;;4982552;28;20211;-80
2022/04/13 11:43:02;;;;;;;4.67;2.63;;;18.90;39.10;;;;;;4982222;28;20907;-78
2022/04/13 11:45:31;;;;;;;6.17;2.57;;;18.90;38.90;;;;;;4982358;28;20201;-78
2022/04/13 11:48:03;;;;;;;5.87;2.30;;;19.00;39.10;;;;;;4982682;28;20239;-79
2022/04/13 11:57:13;;;;;;;9.17;3.53;;;19.30;39.30;;;;;;4940458;28;20750;-76
2022/04/13 12:00:01;;;;;;;7.50;2.67;;;19.30;38.00;;;;;;4944213;28;20198;-77
2022/04/13 12:02:34;;;;;;;6.60;2.60;;;19.30;37.80;;;;;;4946190;28;20244;-76
2022/04/13 12:05:06;;;;;;;6.20;2.77;;;19.30;37.90;;;;;;4943772;28;20232;-76
2022/04/13 12:07:36;;;;;;;4.87;2.27;;;19.40;38.20;;;;;;4943419;28;20204;-78
2022/04/13 12:10:05;;;;;;;7.03;2.40;;;19.40;38.30;;;;;;4942786;28;20198;-76
2022/04/13 12:12:35;;;;;;;5.97;2.87;;;19.40;38.00;;;;;;4944693;28;20193;-76
2022/04/13 12:15:07;;;;;;;3.70;2.17;;;19.50;37.90;;;;;;4944503;28;20190;-76
2022/04/13 12:17:35;;;;;;;4.00;2.20;;;19.50;38.00;;;;;;4943140;28;20209;-77
2022/04/13 12:20:04;;;;;;;6.60;2.00;;;19.70;38.60;;;;;;4944253;28;20901;-76
2022/04/13 12:22:36;;;;;;;4.93;2.60;;;19.70;38.10;;;;;;4941976;28;20229;-77
2022/04/13 12:25:06;;;;;;;4.73;2.30;;;19.70;37.90;;;;;;4944820;28;20200;-77
2022/04/13 12:27:36;;;;;;;7.93;2.20;;;19.80;38.00;;;;;;4947442;28;20206;-75
2022/04/13 12:30:20;;;;;;;5.03;2.27;;;19.90;38.10;;;;;;4947070;28;20199;-78
2022/04/13 12:32:49;;;;;;;4.13;2.20;;;19.90;38.30;;;;;;4946127;28;20202;-76
2022/04/13 12:35:18;;;;;;;9.63;2.57;;;19.90;38.00;;;;;;4942089;28;20974;-75
2022/04/13 12:37:53;;;;;;;5.80;2.10;;;20.00;38.30;;;;;;4942805;28;20213;-74
2022/04/13 12:40:24;;;;;;;4.10;2.30;;;20.10;38.20;;;;;;4943957;28;20651;-75
2022/04/13 12:42:54;;;;;;;4.87;2.50;;;20.10;38.70;;;;;;4947800;28;20575;-78
2022/04/13 12:45:29;;;;;;;4.63;1.83;;;20.10;37.70;;;;;;4947078;28;20888;-78
2022/04/13 12:47:58;;;;;;;3.17;1.93;;;20.20;37.10;;;;;;4948751;28;21221;-76
2022/04/13 12:50:27;;;;;;;3.60;1.80;;;20.20;37.00;;;;;;4948903;28;20241;-77
2022/04/13 12:52:59;;;;;;;4.40;2.37;;;20.20;36.60;;;;;;4948386;28;20206;-78
2022/04/13 12:55:29;;;;;;;6.20;2.30;;;20.30;36.90;;;;;;4946638;28;20325;-78
2022/04/13 12:58:00;;;;;;;4.27;2.00;;;20.30;37.60;;;;;;4948782;28;20201;-78
2022/04/13 13:00:51;;;;;;;4.77;2.47;;;20.40;38.10;;;;;;4948749;28;20203;-80
2022/04/13 13:03:21;;;;;;;4.30;2.10;;;20.30;37.70;;;;;;4946921;28;20224;-78
2022/04/13 13:05:50;;;;;;;9.57;2.20;;;20.20;37.20;;;;;;4952662;28;20194;-79
2022/04/13 13:08:18;;;;;;;6.75;1.90;;;20.40;37.80;;;;;;4947283;28;20248;-78
2022/04/13 13:10:48;;;;;;;4.72;2.05;;;20.40;37.20;;;;;;4947493;28;20221;-78
2022/04/13 13:13:19;;;;;;;3.97;1.75;;;20.50;37.20;;;;;;4947555;28;20202;-77